Time;durP1;ratioP1;P1;durP2;ratioP2;P2;SDS_P1;SDS_P2;PMS_P1;PMS_P2;Temp;Humidity;BMP_temperature;BMP_pressure;BME280_temperature;BME280_humidity;BME280_pressure;Samples;Min_cycle;Max_cycle;Signal;HPM_P1;HPM_P2
2021/12/30 00:00:01;;;;;;;4.60;2.67;;;13.50;99.90;13.40;100965.00;;;;5116457;27;20219;-67
2021/12/30 00:02:35;;;;;;;2.73;1.67;;;13.60;99.90;13.30;100989.00;;;;5114669;28;20207;-67
2021/12/30 00:05:10;;;;;;;0.40;0.40;;;13.50;99.90;13.50;100990.00;;;;5115414;28;20603;-68
2021/12/30 00:07:48;;;;;;;0.67;0.67;;;13.60;99.90;13.40;101004.00;;;;5115550;28;20199;-67
2021/12/30 00:10:26;;;;;;;7.93;2.73;;;13.60;99.90;13.40;100983.00;;;;5115886;28;20196;-68
2021/12/30 00:13:03;;;;;;;16.23;3.07;;;13.60;99.90;13.40;100998.00;;;;5114777;28;20215;-68
2021/12/30 00:15:38;;;;;;;1.40;1.40;;;13.60;99.90;13.40;101000.00;;;;5115074;28;20180;-67
2021/12/30 00:18:15;;;;;;;1.83;1.57;;;13.70;99.90;13.70;100999.00;;;;5115218;28;20167;-68
2021/12/30 00:20:52;;;;;;;0.30;0.30;;;13.70;99.90;13.80;100988.00;;;;5115030;28;20183;-68
2021/12/30 00:23:23;;;;;;;3.27;1.63;;;13.80;99.90;13.60;100994.00;;;;5114591;28;20162;-68
2021/12/30 00:25:57;;;;;;;1.30;0.83;;;13.80;99.90;13.50;100982.00;;;;5115967;28;20177;-68
2021/12/30 00:28:34;;;;;;;1.07;0.67;;;13.70;99.90;13.50;100991.00;;;;5115856;28;20531;-68
2021/12/30 00:31:13;;;;;;;2.43;1.33;;;13.80;99.90;13.50;100985.00;;;;5113914;28;20214;-68
2021/12/30 00:33:50;;;;;;;3.50;1.23;;;13.70;99.90;13.60;100993.00;;;;5114667;28;20199;-68
2021/12/30 00:36:24;;;;;;;2.10;0.90;;;13.80;99.90;13.60;101001.00;;;;5115614;28;20178;-68
2021/12/30 00:39:01;;;;;;;6.67;2.47;;;13.80;99.90;13.60;101002.00;;;;5115966;28;20183;-67
2021/12/30 00:41:38;;;;;;;2.00;1.90;;;13.80;99.90;13.70;101001.00;;;;5114344;28;20183;-67
2021/12/30 00:44:15;;;;;;;0.93;0.93;;;13.80;99.90;13.90;101019.00;;;;5115356;28;20184;-68
2021/12/30 00:46:54;;;;;;;1.97;1.77;;;13.90;99.90;13.70;101015.00;;;;5116037;27;20153;-68
2021/12/30 00:49:33;;;;;;;0.73;0.73;;;13.90;99.90;13.60;101026.00;;;;5115870;28;20224;-68
2021/12/30 00:52:10;;;;;;;0.37;0.37;;;13.90;99.90;13.70;101026.00;;;;5114167;28;20196;-68
2021/12/30 00:54:41;;;;;;;2.67;1.10;;;13.90;99.90;13.60;101029.00;;;;5112981;28;20191;-68
2021/12/30 00:57:16;;;;;;;1.53;1.43;;;13.90;99.90;13.70;101026.00;;;;5114154;28;20192;-67
2021/12/30 00:59:50;;;;;;;2.10;1.47;;;13.90;99.90;13.70;101021.00;;;;5114390;28;20184;-67
2021/12/30 01:02:27;;;;;;;3.50;0.97;;;14.00;99.90;13.80;101011.00;;;;5115425;28;20165;-68
2021/12/30 01:05:04;;;;;;;0.50;0.50;;;14.00;99.90;13.80;100992.00;;;;5113632;28;20186;-67
2021/12/30 01:07:42;;;;;;;0.20;0.20;;;14.00;99.90;13.80;101021.00;;;;5115346;28;20181;-68
2021/12/30 01:10:23;;;;;;;0.37;0.37;;;14.00;99.90;13.50;101032.00;;;;5114147;28;20164;-67
2021/12/30 01:12:56;;;;;;;1.13;1.03;;;13.90;99.90;13.60;101023.00;;;;5114796;28;20689;-67
2021/12/30 01:15:45;;;;;;;1.60;1.33;;;13.90;99.90;13.60;101028.00;;;;5113180;28;20603;-67
2021/12/30 01:21:10;;;;;;;0.73;0.73;;;13.80;99.90;13.60;101010.00;;;;5113570;28;20598;-68
2021/12/30 01:23:47;;;;;;;0.63;0.63;;;13.80;99.90;13.40;101034.00;;;;5113899;28;20263;-68
2021/12/30 01:26:24;;;;;;;1.17;0.93;;;13.80;99.90;13.60;101052.00;;;;5113412;28;20189;-68
2021/12/30 01:29:02;;;;;;;0.83;0.73;;;13.80;99.90;13.60;101054.00;;;;5112822;28;20236;-68
2021/12/30 01:31:41;;;;;;;0.43;0.43;;;13.80;99.90;13.60;101054.00;;;;5113186;28;20299;-68
2021/12/30 01:34:20;;;;;;;0.20;0.20;;;13.80;99.90;13.70;101051.00;;;;5114526;28;20305;-68
2021/12/30 01:37:00;;;;;;;1.37;1.27;;;13.80;99.90;13.70;101053.00;;;;5113479;28;20163;-68
2021/12/30 01:39:37;;;;;;;0.70;0.70;;;13.80;99.90;13.50;101052.00;;;;5096849;28;20267;-68
2021/12/30 01:42:14;;;;;;;0.53;0.53;;;13.80;99.90;13.60;101061.00;;;;5114677;28;20167;-68
2021/12/30 01:44:52;;;;;;;1.43;1.33;;;13.70;99.90;13.60;101053.00;;;;5114566;28;20175;-68
2021/12/30 01:47:29;;;;;;;1.57;1.00;;;13.80;99.90;13.60;101056.00;;;;5113260;28;20286;-68
2021/12/30 01:50:05;;;;;;;4.80;1.27;;;13.80;99.90;13.40;101053.00;;;;5095339;28;20618;-68
2021/12/30 01:52:43;;;;;;;1.00;1.00;;;13.70;99.90;13.50;101052.00;;;;5114114;28;20200;-68
2021/12/30 01:55:30;;;;;;;0.30;0.30;;;13.70;99.90;13.40;101056.00;;;;5112931;28;20215;-68
2021/12/30 01:58:03;;;;;;;2.00;0.97;;;13.70;99.90;13.70;101062.00;;;;5112968;28;20164;-68
2021/12/30 02:00:44;;;;;;;1.30;1.27;;;13.80;99.90;13.70;101056.00;;;;5113294;28;20208;-68
2021/12/30 02:03:19;;;;;;;2.13;1.60;;;13.80;99.90;13.50;101053.00;;;;5113054;28;20209;-68
2021/12/30 02:05:51;;;;;;;1.47;1.37;;;13.70;99.90;13.60;101054.00;;;;5095607;28;20184;-68
2021/12/30 02:08:28;;;;;;;2.27;0.90;;;13.70;99.90;13.70;101042.00;;;;5112910;28;20164;-68
2021/12/30 02:11:07;;;;;;;1.30;1.10;;;13.70;99.90;13.60;101021.00;;;;5112786;28;20184;-68
2021/12/30 02:13:38;;;;;;;0.27;0.27;;;13.70;99.90;13.40;101054.00;;;;5112829;28;20511;-68
2021/12/30 02:16:12;;;;;;;0.40;0.40;;;13.60;99.90;13.50;101042.00;;;;5112658;28;20229;-68
2021/12/30 02:18:52;;;;;;;1.30;1.20;;;13.70;99.90;13.60;101045.00;;;;5094834;28;20196;-68
2021/12/30 02:21:25;;;;;;;1.90;0.77;;;13.70;99.90;13.50;101048.00;;;;5112736;28;20233;-68
2021/12/30 02:24:02;;;;;;;4.43;2.00;;;13.70;99.90;13.50;101045.00;;;;5112354;28;20184;-68
2021/12/30 02:26:42;;;;;;;0.60;0.60;;;13.70;99.90;13.60;101051.00;;;;5112504;28;20182;-68
2021/12/30 02:29:16;;;;;;;1.00;0.67;;;13.70;99.90;13.50;101038.00;;;;5095675;28;20186;-68
2021/12/30 02:31:53;;;;;;;0.37;0.37;;;13.70;99.90;13.60;101043.00;;;;5113098;28;20212;-67
2021/12/30 02:34:29;;;;;;;1.97;1.13;;;13.70;99.90;13.50;101050.00;;;;5113719;28;20177;-68
2021/12/30 02:37:00;;;;;;;0.90;0.83;;;13.70;99.90;13.70;101055.00;;;;5112515;28;20170;-68
2021/12/30 02:39:36;;;;;;;0.87;0.87;;;13.80;99.90;13.70;101057.00;;;;5112932;28;20172;-68
2021/12/30 02:42:20;;;;;;;0.20;0.20;;;13.90;99.90;13.60;101031.00;;;;5112405;28;20249;-68
2021/12/30 02:44:54;;;;;;;1.30;1.13;;;13.80;99.90;13.70;101073.00;;;;5112449;28;20182;-68
2021/12/30 02:47:33;;;;;;;1.07;0.97;;;13.90;99.90;13.80;101072.00;;;;5113139;28;20225;-68
2021/12/30 02:50:11;;;;;;;1.10;1.00;;;14.00;99.90;13.80;101075.00;;;;5113773;28;20198;-67
2021/12/30 02:52:50;;;;;;;1.47;1.03;;;14.00;99.90;13.80;101078.00;;;;5113515;28;20202;-67
2021/12/30 02:55:29;;;;;;;2.57;0.97;;;14.00;99.90;13.90;101075.00;;;;5113883;28;20184;-68
2021/12/30 02:58:00;;;;;;;0.30;0.30;;;14.10;99.90;13.80;101076.00;;;;5112556;28;20241;-68
2021/12/30 03:00:35;;;;;;;0.80;0.80;;;14.10;99.90;13.90;101076.00;;;;5112277;28;20276;-67
2021/12/30 03:03:20;;;;;;;0.40;0.40;;;14.10;99.90;14.10;101079.00;;;;5112264;28;20180;-69
2021/12/30 03:05:59;;;;;;;0.20;0.20;;;14.20;99.90;14.10;101089.00;;;;5113466;28;20176;-68
2021/12/30 03:08:34;;;;;;;1.07;1.00;;;14.20;99.90;14.00;101093.00;;;;5112218;28;20177;-67
2021/12/30 03:11:10;;;;;;;0.67;0.67;;;14.20;99.90;14.00;101103.00;;;;5095100;28;20272;-68
2021/12/30 03:13:53;;;;;;;3.90;0.50;;;14.30;99.90;14.30;101096.00;;;;5112562;28;20163;-68
2021/12/30 03:16:37;;;;;;;0.70;0.70;;;14.30;99.90;14.10;101101.00;;;;5113020;28;20182;-68
2021/12/30 03:19:14;;;;;;;0.67;0.67;;;14.30;99.90;14.10;101099.00;;;;5114323;28;20186;-68
2021/12/30 03:21:51;;;;;;;1.00;0.80;;;14.30;99.90;14.30;101119.00;;;;5098968;28;20212;-67
2021/12/30 03:24:28;;;;;;;1.20;0.63;;;14.40;99.90;14.10;101118.00;;;;5116123;28;20173;-68
2021/12/30 03:27:05;;;;;;;0.83;0.83;;;14.40;99.90;14.20;101119.00;;;;5115707;28;20183;-68
2021/12/30 03:29:42;;;;;;;0.57;0.53;;;14.40;99.90;14.20;101117.00;;;;5116034;28;20176;-68
2021/12/30 03:32:19;;;;;;;0.93;0.93;;;14.40;99.90;14.10;101122.00;;;;5098904;28;20210;-68
2021/12/30 03:34:56;;;;;;;0.80;0.60;;;14.40;99.90;14.10;101121.00;;;;5115774;28;20188;-68
2021/12/30 03:37:32;;;;;;;0.97;0.97;;;14.40;99.90;14.40;101115.00;;;;5116830;28;20205;-68
2021/12/30 03:40:11;;;;;;;0.77;0.77;;;14.50;99.90;14.20;101120.00;;;;5115791;28;20616;-68
2021/12/30 03:42:46;;;;;;;0.93;0.80;;;14.50;99.90;14.20;101110.00;;;;5115832;28;20191;-68
2021/12/30 03:45:20;;;;;;;0.90;0.90;;;14.40;99.90;14.00;101119.00;;;;5115374;28;20179;-68
2021/12/30 03:47:57;;;;;;;0.40;0.40;;;14.40;99.90;14.00;101113.00;;;;5115670;28;20234;-68
2021/12/30 03:50:42;;;;;;;0.70;0.60;;;14.40;99.90;14.30;101115.00;;;;5098421;28;20172;-68
2021/12/30 03:53:17;;;;;;;0.83;0.83;;;14.40;99.90;14.30;101132.00;;;;5116706;28;20200;-68
2021/12/30 03:55:52;;;;;;;0.67;0.60;;;14.50;99.90;14.20;101103.00;;;;5115181;28;20204;-68
2021/12/30 03:58:25;;;;;;;0.40;0.40;;;14.50;99.90;14.40;101126.00;;;;5116667;28;20269;-68
2021/12/30 04:01:01;;;;;;;1.23;0.57;;;14.50;99.90;14.30;101130.00;;;;5115228;28;20233;-68
2021/12/30 04:03:38;;;;;;;0.50;0.50;;;14.50;99.90;14.30;101127.00;;;;5115431;28;20177;-68
2021/12/30 04:06:15;;;;;;;0.47;0.47;;;14.50;99.90;14.40;101137.00;;;;5115007;28;20183;-68
2021/12/30 04:08:54;;;;;;;0.67;0.63;;;14.50;99.90;14.30;101138.00;;;;5115266;28;20200;-68
2021/12/30 04:11:33;;;;;;;0.73;0.73;;;14.50;99.90;14.30;101107.00;;;;5115568;28;20174;-68
2021/12/30 04:14:10;;;;;;;0.60;0.60;;;14.50;99.90;14.20;101151.00;;;;5114536;28;20195;-68
2021/12/30 04:16:47;;;;;;;0.20;0.20;;;14.40;99.90;14.30;101149.00;;;;5116051;28;20219;-68
2021/12/30 04:19:21;;;;;;;0.20;0.20;;;14.50;99.90;14.30;101149.00;;;;5116031;28;20621;-68
2021/12/30 04:21:58;;;;;;;0.53;0.50;;;14.50;99.90;14.20;101150.00;;;;5115233;28;20181;-68
2021/12/30 04:24:34;;;;;;;0.20;0.20;;;14.50;99.90;14.30;101117.00;;;;5115911;28;20269;-68
2021/12/30 04:27:14;;;;;;;0.20;0.20;;;14.40;99.90;14.20;101153.00;;;;5115019;28;20609;-68
2021/12/30 04:29:50;;;;;;;0.30;0.30;;;14.50;99.90;14.30;101150.00;;;;5114226;28;20168;-68
2021/12/30 04:32:29;;;;;;;0.50;0.50;;;14.50;99.90;14.20;101123.00;;;;5115789;28;20220;-68
2021/12/30 04:35:10;;;;;;;0.37;0.37;;;14.40;99.90;14.30;101169.00;;;;5115704;27;20259;-68
2021/12/30 04:37:44;;;;;;;0.30;0.30;;;14.40;99.90;14.20;101137.00;;;;5097610;28;20189;-69
2021/12/30 04:40:22;;;;;;;0.53;0.50;;;14.40;99.90;14.10;101179.00;;;;5114510;28;20189;-67
2021/12/30 04:42:59;;;;;;;0.20;0.20;;;14.40;99.90;14.10;101171.00;;;;5097666;28;20232;-68
2021/12/30 04:45:38;;;;;;;0.50;0.50;;;14.30;99.90;14.00;101151.00;;;;5114427;28;20175;-68
2021/12/30 04:48:13;;;;;;;0.60;0.30;;;14.30;99.90;14.10;101178.00;;;;5114424;28;20227;-68
2021/12/30 04:50:53;;;;;;;0.30;0.30;;;14.30;99.90;14.00;101176.00;;;;5114448;28;20607;-68
2021/12/30 04:53:38;;;;;;;0.20;0.20;;;14.30;99.90;14.00;101172.00;;;;5114359;28;20210;-67
2021/12/30 04:56:18;;;;;;;0.20;0.20;;;14.20;99.90;14.20;101176.00;;;;5115491;28;20161;-68
2021/12/30 04:59:00;;;;;;;0.33;0.33;;;14.30;99.90;14.00;101192.00;;;;5114405;28;20258;-68
2021/12/30 05:01:38;;;;;;;0.20;0.20;;;14.30;99.90;13.90;101204.00;;;;5114080;28;20209;-68
2021/12/30 05:04:18;;;;;;;0.60;0.60;;;14.20;99.90;14.20;101209.00;;;;5113895;28;20173;-68
2021/12/30 05:06:58;;;;;;;0.20;0.20;;;14.30;99.90;14.10;101199.00;;;;5114042;28;20501;-68
2021/12/30 05:09:33;;;;;;;0.40;0.40;;;14.30;99.90;14.00;101173.00;;;;5115404;28;20168;-68
2021/12/30 05:12:08;;;;;;;0.30;0.30;;;14.20;99.90;13.90;101200.00;;;;5113513;28;20695;-68
2021/12/30 05:14:47;;;;;;;0.30;0.30;;;14.20;99.90;14.00;101206.00;;;;5114064;28;20177;-68
2021/12/30 05:17:22;;;;;;;0.73;0.50;;;14.20;99.90;13.80;101212.00;;;;5114038;28;20192;-68
2021/12/30 05:19:59;;;;;;;0.60;0.60;;;14.10;99.90;14.00;101222.00;;;;5113871;28;20186;-67
2021/12/30 05:22:34;;;;;;;0.20;0.20;;;14.10;99.90;13.80;101218.00;;;;5096593;28;20188;-68
2021/12/30 05:25:14;;;;;;;0.30;0.30;;;14.00;99.90;13.70;101223.00;;;;5113438;28;20171;-68
2021/12/30 05:27:53;;;;;;;0.30;0.30;;;14.00;99.90;13.80;101229.00;;;;5096617;28;20185;-68
2021/12/30 05:30:32;;;;;;;0.40;0.40;;;14.00;99.90;13.90;101218.00;;;;5113579;28;20168;-68
2021/12/30 05:33:01;;;;;;;0.30;0.30;;;14.00;99.90;14.00;101218.00;;;;5113454;28;20208;-68
2021/12/30 05:35:33;;;;;;;0.60;0.60;;;14.10;99.90;13.90;101209.00;;;;5114901;28;20166;-68
2021/12/30 05:38:07;;;;;;;0.43;0.43;;;14.10;99.90;13.90;101212.00;;;;5112514;28;20223;-68
2021/12/30 05:40:43;;;;;;;0.50;0.50;;;14.10;99.90;14.00;101211.00;;;;5114324;28;20216;-68
2021/12/30 05:43:19;;;;;;;0.63;0.50;;;14.10;99.90;14.00;101205.00;;;;5113408;28;20233;-68
2021/12/30 05:45:51;;;;;;;0.87;0.73;;;14.20;99.90;13.90;101180.00;;;;5114307;28;20192;-68
2021/12/30 05:48:22;;;;;;;0.67;0.67;;;14.10;99.90;14.00;101209.00;;;;5114430;28;20258;-68
2021/12/30 05:51:01;;;;;;;0.40;0.40;;;14.20;99.90;14.00;101208.00;;;;5114569;28;20796;-68
2021/12/30 05:53:38;;;;;;;1.00;0.90;;;14.20;99.90;13.90;101203.00;;;;5114551;28;20204;-68
2021/12/30 05:56:15;;;;;;;0.20;0.20;;;14.20;99.90;14.00;101171.00;;;;5112616;28;20632;-68
2021/12/30 05:58:52;;;;;;;0.30;0.30;;;14.20;99.90;14.10;101211.00;;;;5113065;28;20172;-67
2021/12/30 06:01:29;;;;;;;2.17;0.70;;;14.30;99.90;14.00;101201.00;;;;5113238;28;20175;-68
2021/12/30 06:04:02;;;;;;;0.60;0.60;;;14.30;99.90;14.20;101208.00;;;;5114395;28;20180;-68
2021/12/30 06:06:42;;;;;;;0.20;0.20;;;14.40;99.90;14.40;101209.00;;;;5114198;28;20174;-68
2021/12/30 06:09:22;;;;;;;0.57;0.53;;;14.40;99.90;14.10;101220.00;;;;5113601;28;20190;-68
2021/12/30 06:11:53;;;;;;;4.27;0.80;;;14.40;99.90;14.10;101211.00;;;;5112918;28;20204;-69
2021/12/30 06:14:30;;;;;;;0.60;0.60;;;14.40;99.90;14.20;101174.00;;;;5114217;28;20181;-68
2021/12/30 06:17:13;;;;;;;0.50;0.50;;;14.40;99.90;14.20;101204.00;;;;5111714;28;20245;-68
2021/12/30 06:19:49;;;;;;;0.50;0.50;;;14.40;99.90;14.10;101198.00;;;;5114182;28;20169;-68
2021/12/30 06:22:26;;;;;;;2.40;0.53;;;14.40;99.90;14.40;101162.00;;;;5113679;28;20177;-68
2021/12/30 06:25:00;;;;;;;0.63;0.63;;;14.50;99.90;14.20;101208.00;;;;5113904;28;20165;-68
2021/12/30 06:27:40;;;;;;;2.43;0.63;;;14.40;99.90;14.10;101217.00;;;;5112396;28;20186;-68
2021/12/30 06:30:14;;;;;;;1.03;0.93;;;14.40;99.90;14.20;101228.00;;;;5095774;28;20178;-68
2021/12/30 06:32:51;;;;;;;0.80;0.70;;;14.40;99.90;14.10;101217.00;;;;5112446;28;20220;-68
2021/12/30 06:35:27;;;;;;;0.50;0.50;;;14.40;99.90;14.00;101234.00;;;;5096382;28;20189;-68
2021/12/30 06:38:05;;;;;;;0.90;0.70;;;14.30;99.90;14.20;101237.00;;;;5112604;28;20169;-68
2021/12/30 06:40:42;;;;;;;1.47;0.77;;;14.40;99.90;14.10;101235.00;;;;5095770;28;20587;-69
2021/12/30 06:43:19;;;;;;;0.63;0.63;;;14.40;99.90;14.20;101237.00;;;;5112633;28;20203;-68
2021/12/30 06:45:53;;;;;;;0.30;0.30;;;14.40;99.90;14.40;101235.00;;;;5112550;28;20577;-68
2021/12/30 06:48:27;;;;;;;0.67;0.67;;;14.50;99.90;14.60;101236.00;;;;5113621;28;20176;-68
2021/12/30 06:51:04;;;;;;;0.87;0.87;;;14.60;99.90;14.10;101224.00;;;;5112319;28;20269;-69
2021/12/30 06:53:42;;;;;;;2.73;0.87;;;14.40;99.90;14.10;101221.00;;;;5114506;28;20236;-68
2021/12/30 06:56:25;;;;;;;0.63;0.63;;;14.40;99.90;14.30;101247.00;;;;5116771;28;20224;-68
2021/12/30 06:59:02;;;;;;;0.30;0.30;;;14.40;99.90;14.10;101250.00;;;;5117648;27;20182;-68
2021/12/30 07:01:40;;;;;;;2.87;0.77;;;14.40;99.90;14.10;101258.00;;;;5117576;27;20178;-68
2021/12/30 07:04:20;;;;;;;0.63;0.63;;;14.40;99.90;14.10;101212.00;;;;5116380;28;20187;-68
2021/12/30 07:06:52;;;;;;;0.57;0.57;;;14.40;99.90;14.30;101253.00;;;;5116495;28;20173;-68
2021/12/30 07:09:32;;;;;;;0.20;0.20;;;14.50;99.90;14.30;101261.00;;;;5116323;28;20181;-68
2021/12/30 07:12:03;;;;;;;2.30;0.60;;;14.50;99.90;14.10;101258.00;;;;5116238;28;20210;-68
2021/12/30 07:14:41;;;;;;;1.87;1.27;;;14.40;99.90;14.10;101263.00;;;;5117451;28;20230;-68
2021/12/30 07:17:23;;;;;;;1.73;0.63;;;14.40;99.90;14.20;101265.00;;;;5115924;28;20193;-68
2021/12/30 07:20:02;;;;;;;1.53;0.60;;;14.50;99.90;14.20;101265.00;;;;5116163;28;20175;-68
2021/12/30 07:22:42;;;;;;;0.40;0.40;;;14.40;99.90;14.40;101275.00;;;;5115894;28;20231;-68
2021/12/30 07:25:17;;;;;;;1.27;1.17;;;14.50;99.90;13.90;101277.00;;;;5115894;28;20174;-68
2021/12/30 07:27:55;;;;;;;1.03;0.63;;;14.40;99.90;14.10;101282.00;;;;5115246;28;20199;-68
2021/12/30 07:30:32;;;;;;;0.90;0.87;;;14.40;99.90;14.20;101277.00;;;;5115747;28;20187;-67
2021/12/30 07:33:07;;;;;;;1.60;1.07;;;14.40;99.90;14.20;101279.00;;;;5115763;28;20312;-68
2021/12/30 07:35:43;;;;;;;0.50;0.50;;;14.40;99.90;14.30;101288.00;;;;5117192;28;20158;-69
2021/12/30 07:38:15;;;;;;;0.77;0.77;;;14.50;99.90;14.60;101286.00;;;;5115381;28;20188;-68
2021/12/30 07:40:52;;;;;;;5.23;1.10;;;14.60;99.90;14.20;101298.00;;;;5115494;28;20648;-68
2021/12/30 07:43:32;;;;;;;4.70;0.40;;;14.50;99.90;14.30;101290.00;;;;5115720;28;20311;-68
2021/12/30 07:46:12;;;;;;;1.70;0.53;;;14.50;99.90;14.30;101318.00;;;;5115872;28;20177;-68
2021/12/30 07:48:51;;;;;;;1.03;0.50;;;14.50;99.90;14.50;101321.00;;;;5098592;28;20267;-68
2021/12/30 07:51:28;;;;;;;3.03;2.63;;;14.50;99.90;14.60;101317.00;;;;5116035;28;20188;-68
2021/12/30 07:54:02;;;;;;;1.17;0.90;;;14.60;99.90;14.40;101284.00;;;;5115376;28;20624;-68
2021/12/30 07:56:36;;;;;;;2.77;1.30;;;14.60;99.90;14.40;101320.00;;;;5115382;28;20182;-68
2021/12/30 07:59:10;;;;;;;11.93;1.73;;;14.50;99.90;14.10;101320.00;;;;5116460;28;20188;-67
2021/12/30 08:01:46;;;;;;;2.90;0.93;;;14.40;99.90;14.10;101320.00;;;;5116420;28;20593;-68
2021/12/30 08:04:26;;;;;;;4.60;1.30;;;14.40;99.90;14.20;101328.00;;;;5114884;28;20527;-68
2021/12/30 08:07:02;;;;;;;4.40;1.20;;;14.50;99.90;14.40;101341.00;;;;5116339;28;20170;-68
2021/12/30 08:09:36;;;;;;;1.73;1.00;;;14.50;99.90;14.40;101352.00;;;;5116373;27;20176;-68
2021/12/30 08:12:15;;;;;;;1.57;1.47;;;14.50;99.90;14.20;101348.00;;;;5116112;28;20237;-67
2021/12/30 08:14:47;;;;;;;0.40;0.40;;;14.50;99.90;14.30;101355.00;;;;5115168;28;20172;-68
2021/12/30 08:17:23;;;;;;;11.53;3.10;;;14.50;99.90;14.40;101342.00;;;;5114876;28;20168;-68
2021/12/30 08:19:57;;;;;;;1.43;1.33;;;14.50;99.90;14.60;101352.00;;;;5115771;28;20173;-67
2021/12/30 08:22:31;;;;;;;5.10;1.07;;;14.60;99.90;14.50;101349.00;;;;5114820;28;20181;-68
2021/12/30 08:25:14;;;;;;;3.53;1.23;;;14.70;99.90;14.50;101350.00;;;;5114394;28;20257;-67
2021/12/30 08:27:50;;;;;;;1.13;1.03;;;14.70;99.90;14.40;101361.00;;;;5114866;28;20242;-68
2021/12/30 08:30:25;;;;;;;7.37;1.70;;;14.60;99.90;14.60;101372.00;;;;5114480;28;20188;-68
2021/12/30 08:33:04;;;;;;;0.20;0.20;;;14.70;99.90;14.50;101355.00;;;;5114524;28;20211;-68
2021/12/30 08:35:37;;;;;;;1.43;1.33;;;14.70;99.90;14.70;101362.00;;;;5114441;28;20184;-68
2021/12/30 08:38:19;;;;;;;0.20;0.20;;;14.70;99.90;14.70;101352.00;;;;5114654;28;20221;-69
2021/12/30 08:40:52;;;;;;;1.47;0.87;;;14.80;99.90;14.60;101356.00;;;;5114538;28;20182;-68
2021/12/30 08:43:25;;;;;;;1.10;0.70;;;14.70;99.90;14.60;101344.00;;;;5114300;28;20662;-68
2021/12/30 08:46:05;;;;;;;0.47;0.47;;;14.70;99.90;14.40;101355.00;;;;5097489;28;20182;-68
2021/12/30 08:48:41;;;;;;;0.83;0.30;;;14.70;99.90;14.40;101357.00;;;;5114770;28;20162;-69
2021/12/30 08:51:21;;;;;;;0.60;0.60;;;14.60;99.90;14.40;101355.00;;;;5115710;28;20177;-68
2021/12/30 08:53:59;;;;;;;11.37;2.00;;;14.60;99.90;14.40;101355.00;;;;5115649;28;20268;-68
2021/12/30 08:56:36;;;;;;;9.37;1.73;;;14.60;99.90;14.70;101357.00;;;;5115474;28;20177;-68
2021/12/30 08:59:13;;;;;;;0.83;0.83;;;14.80;99.90;14.40;101364.00;;;;5115351;28;20610;-68
2021/12/30 09:01:52;;;;;;;1.60;1.07;;;14.70;99.90;14.60;101338.00;;;;5114177;28;20281;-68
2021/12/30 09:04:29;;;;;;;0.20;0.20;;;14.70;99.90;14.80;101369.00;;;;5114866;28;20288;-69
2021/12/30 09:07:06;;;;;;;0.30;0.30;;;14.80;99.90;14.60;101366.00;;;;5115232;28;20229;-68
2021/12/30 09:09:40;;;;;;;3.97;1.80;;;14.80;99.90;14.70;101364.00;;;;5097268;28;20188;-68
2021/12/30 09:12:19;;;;;;;0.93;0.90;;;14.80;99.90;14.50;101365.00;;;;5113253;28;20262;-68
2021/12/30 09:14:55;;;;;;;3.00;0.70;;;14.70;99.90;14.50;101370.00;;;;5113815;28;20267;-68
2021/12/30 09:17:38;;;;;;;0.60;0.60;;;14.80;99.90;14.40;101370.00;;;;5112866;28;20190;-68
2021/12/30 09:20:18;;;;;;;3.53;2.07;;;14.70;99.90;14.60;101369.00;;;;5113834;28;20158;-68
2021/12/30 09:22:57;;;;;;;5.30;1.37;;;14.80;99.90;14.70;101356.00;;;;5113600;28;20205;-68
2021/12/30 09:25:31;;;;;;;4.53;0.87;;;14.90;99.90;14.80;101379.00;;;;5113726;28;20185;-68
2021/12/30 09:28:11;;;;;;;0.87;0.73;;;14.90;99.90;14.50;101379.00;;;;5115207;28;20190;-68
2021/12/30 09:30:55;;;;;;;1.17;1.10;;;14.80;99.90;14.70;101376.00;;;;5096887;28;20248;-68
2021/12/30 09:33:34;;;;;;;6.53;2.83;;;14.90;99.90;14.80;101370.00;;;;5114604;28;20212;-68
2021/12/30 09:36:11;;;;;;;3.93;0.80;;;15.00;99.90;14.70;101369.00;;;;5114767;27;20183;-68
2021/12/30 09:38:45;;;;;;;0.77;0.77;;;14.90;99.90;14.50;101344.00;;;;5114591;28;20526;-68
2021/12/30 09:41:25;;;;;;;4.60;2.43;;;14.90;99.90;14.60;101360.00;;;;5113119;28;20179;-68
2021/12/30 09:44:07;;;;;;;2.07;1.47;;;14.90;99.90;14.80;101380.00;;;;5114367;28;20181;-68
2021/12/30 09:46:44;;;;;;;0.93;0.93;;;14.90;99.90;15.00;101344.00;;;;5114604;28;20295;-67
2021/12/30 09:49:19;;;;;;;0.20;0.20;;;15.00;99.90;15.00;101378.00;;;;5096728;28;20182;-68
2021/12/30 09:51:56;;;;;;;6.37;1.03;;;15.00;99.90;14.80;101373.00;;;;5113143;28;20683;-68
2021/12/30 09:54:30;;;;;;;0.93;0.70;;;15.00;99.90;14.90;101379.00;;;;5096123;28;20279;-68
2021/12/30 09:57:04;;;;;;;2.90;0.77;;;15.10;99.90;14.70;101382.00;;;;5112853;28;20642;-68
2021/12/30 09:59:41;;;;;;;3.07;1.13;;;15.00;99.90;15.00;101377.00;;;;5114319;28;20190;-68
2021/12/30 10:02:20;;;;;;;5.93;2.30;;;15.10;99.90;14.80;101412.00;;;;5113932;28;20557;-69
2021/12/30 10:05:12;;;;;;;1.63;1.47;;;15.10;99.90;14.60;101415.00;;;;5096126;28;20212;-68
2021/12/30 10:07:49;;;;;;;5.20;1.07;;;15.00;99.90;14.70;101410.00;;;;5113150;28;20177;-68
2021/12/30 10:10:35;;;;;;;1.10;0.87;;;15.00;99.90;14.70;101411.00;;;;5114258;28;20171;-68
2021/12/30 10:13:29;;;;;;;2.67;1.47;;;15.00;99.90;14.90;101414.00;;;;5112550;28;20204;-68
2021/12/30 10:16:12;;;;;;;5.13;1.20;;;15.00;99.90;14.70;101423.00;;;;5112534;28;20166;-68
2021/12/30 10:18:58;;;;;;;1.63;0.93;;;15.00;99.90;14.70;101417.00;;;;5112732;28;20697;-68
2021/12/30 10:33:32;;;;;;;6.90;1.40;;;14.80;99.90;14.60;101418.00;;;;5111111;27;20517;-69
2021/12/30 10:36:35;;;;;;;0.67;0.67;;;14.90;99.90;14.80;101384.00;;;;5106580;28;20192;-70
2021/12/30 10:39:29;;;;;;;0.97;0.97;;;15.00;99.90;14.70;101383.00;;;;5106128;28;20601;-69
2021/12/30 10:42:21;;;;;;;0.30;0.30;;;15.00;99.90;15.00;101407.00;;;;5106750;28;20203;-69
2021/12/30 10:45:04;;;;;;;3.07;1.03;;;15.10;99.90;15.00;101402.00;;;;5089575;28;20621;-69
2021/12/30 10:47:58;;;;;;;5.43;1.67;;;15.10;99.90;14.90;101401.00;;;;5106645;28;20232;-69
2021/12/30 10:50:32;;;;;;;1.03;0.77;;;15.10;99.90;14.90;101404.00;;;;5106502;28;20183;-70
2021/12/30 10:53:06;;;;;;;1.70;1.60;;;15.20;99.90;15.30;101395.00;;;;5106000;28;20653;-70
2021/12/30 10:55:42;;;;;;;1.07;0.40;;;15.30;99.90;15.40;101395.00;;;;5106409;28;20627;-69
2021/12/30 10:58:32;;;;;;;4.70;0.57;;;15.40;99.90;15.70;101395.00;;;;5106360;28;20519;-69
2021/12/30 11:01:24;;;;;;;1.47;1.37;;;15.70;99.90;15.70;101380.00;;;;5090153;28;20171;-69
2021/12/30 11:04:05;;;;;;;2.53;0.63;;;15.70;99.90;15.30;101396.00;;;;5090276;28;20599;-69
2021/12/30 11:06:42;;;;;;;4.10;0.67;;;15.60;99.90;15.40;101391.00;;;;5105863;28;20202;-69
2021/12/30 11:09:21;;;;;;;3.10;1.13;;;15.60;99.90;15.10;101399.00;;;;5090303;28;20175;-68
2021/12/30 11:12:01;;;;;;;1.03;0.90;;;15.50;99.90;15.50;101395.00;;;;5106076;28;20338;-69
2021/12/30 11:14:40;;;;;;;0.60;0.60;;;15.60;99.90;15.30;101403.00;;;;5105296;28;20260;-68
2021/12/30 11:17:19;;;;;;;3.90;1.17;;;15.60;99.90;15.50;101413.00;;;;5090582;28;20345;-68
2021/12/30 11:20:11;;;;;;;2.47;1.50;;;15.70;99.90;15.10;101420.00;;;;5105421;28;20675;-69
2021/12/30 11:22:48;;;;;;;1.10;0.87;;;15.50;99.90;15.50;101424.00;;;;5088328;28;20239;-69
2021/12/30 11:25:23;;;;;;;4.37;1.80;;;15.60;99.90;15.30;101395.00;;;;5105709;28;20275;-68
2021/12/30 11:28:01;;;;;;;1.53;1.27;;;15.60;99.90;15.10;101418.00;;;;5106083;28;20201;-69
2021/12/30 11:30:38;;;;;;;2.67;0.97;;;15.50;99.90;15.20;101403.00;;;;5105033;28;20175;-68
2021/12/30 11:33:12;;;;;;;3.37;1.30;;;15.40;99.90;15.00;101399.00;;;;5105354;28;20220;-69
2021/12/30 11:35:43;;;;;;;1.83;1.37;;;15.40;99.90;15.10;101398.00;;;;5105255;28;20573;-69
2021/12/30 11:38:15;;;;;;;1.33;1.23;;;15.40;99.90;15.00;101398.00;;;;5104931;28;20581;-68
2021/12/30 11:40:46;;;;;;;1.20;1.07;;;15.40;99.90;15.20;101407.00;;;;5105377;28;20578;-69
2021/12/30 11:43:26;;;;;;;3.23;1.17;;;15.40;99.90;15.30;101418.00;;;;5083752;28;20188;-69
2021/12/30 11:46:02;;;;;;;1.70;0.90;;;15.40;99.90;15.00;101393.00;;;;5076292;28;20161;-69